createdAt,value
2023-12-04T00:01:48.189Z,70.54
2023-12-04T00:04:14.991Z,70.69
2023-12-04T00:06:44.661Z,70.56
2023-12-04T00:09:11.233Z,69.95
2023-12-04T00:11:37.653Z,69.64
2023-12-04T00:14:04.216Z,69.43
2023-12-04T00:16:30.675Z,69.58
2023-12-04T00:18:57.422Z,70.04
2023-12-04T00:21:23.961Z,69.61
2023-12-04T00:23:50.554Z,69.57
2023-12-04T00:26:17.131Z,70.07
2023-12-04T00:28:43.616Z,69.54
2023-12-04T00:31:11.777Z,70.34
2023-12-04T00:33:38.387Z,70.53
2023-12-04T00:36:05.316Z,71.82
2023-12-04T00:38:31.780Z,71.19
2023-12-04T00:40:58.886Z,70.92
2023-12-04T00:43:25.718Z,70.09
2023-12-04T00:45:52.251Z,70.69
2023-12-04T00:48:18.894Z,70.82
2023-12-04T00:50:45.394Z,70.52
2023-12-04T00:53:12.202Z,71.12
2023-12-04T00:55:38.628Z,70.71
2023-12-04T00:58:05.162Z,70.89
2023-12-04T01:00:31.776Z,70.60
2023-12-04T01:02:58.678Z,70.38
2023-12-04T01:05:25.130Z,70.21
2023-12-04T01:07:52.430Z,70.80
2023-12-04T01:10:18.998Z,70.73
2023-12-04T01:12:45.660Z,70.84
2023-12-04T01:15:12.139Z,70.50
2023-12-04T01:17:38.711Z,71.17
2023-12-04T01:20:05.974Z,70.68
2023-12-04T01:22:32.691Z,70.19
2023-12-04T01:24:59.179Z,69.85
2023-12-04T01:27:25.646Z,69.88
2023-12-04T01:29:54.539Z,69.84
2023-12-04T01:32:20.970Z,69.54
2023-12-04T01:34:47.503Z,70.07
2023-12-04T01:37:14.042Z,70.44
2023-12-04T01:39:40.694Z,70.70
2023-12-04T01:42:07.276Z,71.00
2023-12-04T01:44:33.778Z,70.65
2023-12-04T01:47:00.408Z,69.82
2023-12-04T01:49:27.579Z,69.99
2023-12-04T01:51:54.445Z,70.28
2023-12-04T01:54:21.578Z,70.57
2023-12-04T01:56:48.148Z,69.97
2023-12-04T01:59:15.266Z,69.63
2023-12-04T02:01:41.742Z,69.29
2023-12-04T02:04:08.802Z,69.38
2023-12-04T02:06:35.826Z,68.82
2023-12-04T02:09:02.651Z,69.21
2023-12-04T02:11:29.238Z,69.65
2023-12-04T02:13:56.747Z,69.16
2023-12-04T02:16:26.598Z,69.03
2023-12-04T02:18:54.365Z,68.88
2023-12-04T02:21:20.897Z,68.33
2023-12-04T02:23:52.126Z,68.60
2023-12-04T02:26:23.367Z,68.75
2023-12-04T02:28:56.261Z,68.46
2023-12-04T02:31:24.948Z,68.53
2023-12-04T02:33:53.880Z,68.47
2023-12-04T02:36:21.640Z,69.35
2023-12-04T02:38:48.392Z,69.12
2023-12-04T02:41:15.093Z,68.66
2023-12-04T02:43:41.541Z,68.79
2023-12-04T02:46:08.198Z,68.85
2023-12-04T02:48:34.780Z,69.28
2023-12-04T02:51:01.421Z,69.07
2023-12-04T02:53:27.867Z,69.47
2023-12-04T02:55:54.583Z,69.45
2023-12-04T02:58:21.038Z,69.45
2023-12-04T03:00:47.606Z,69.46
2023-12-04T03:03:14.253Z,69.33
2023-12-04T03:05:40.724Z,69.64
2023-12-04T03:08:07.326Z,69.42
2023-12-04T03:10:33.840Z,69.35
2023-12-04T03:13:00.866Z,68.85
2023-12-04T03:15:29.661Z,69.47
2023-12-04T03:17:56.381Z,69.85
2023-12-04T03:20:22.898Z,69.48
2023-12-04T03:22:49.360Z,69.47
2023-12-04T03:25:15.842Z,69.55
2023-12-04T03:27:42.404Z,69.32
2023-12-04T03:30:09.387Z,68.80
2023-12-04T03:32:35.903Z,68.77
2023-12-04T03:35:02.501Z,70.67
2023-12-04T03:37:28.981Z,70.17
2023-12-04T03:39:55.492Z,70.37
2023-12-04T03:42:21.897Z,70.14
2023-12-04T03:44:48.365Z,70.39
2023-12-04T03:47:14.847Z,70.34
2023-12-04T03:49:41.348Z,70.34
2023-12-04T03:52:07.878Z,70.25
2023-12-04T03:54:34.346Z,69.82
2023-12-04T03:57:00.815Z,69.86
2023-12-04T03:59:27.280Z,69.97
2023-12-04T04:01:54.015Z,69.57
2023-12-04T04:04:20.575Z,69.23
2023-12-04T04:06:47.224Z,69.48
2023-12-04T04:09:13.829Z,69.33
2023-12-04T04:11:41.148Z,68.77
2023-12-04T04:14:07.593Z,68.74
2023-12-04T04:16:34.021Z,68.40
2023-12-04T04:19:00.580Z,68.90
2023-12-04T04:21:27.062Z,69.07
2023-12-04T04:23:54.661Z,69.24
2023-12-04T04:26:21.121Z,69.18
2023-12-04T04:28:47.987Z,69.48
2023-12-04T04:31:14.538Z,69.44
2023-12-04T04:33:41.033Z,69.46
2023-12-04T04:36:10.536Z,69.20
2023-12-04T04:38:36.958Z,69.36
2023-12-04T04:41:03.569Z,68.13
2023-12-04T04:43:32.642Z,68.82
2023-12-04T04:46:03.397Z,68.75
2023-12-04T04:48:29.827Z,68.59
2023-12-04T04:50:56.346Z,68.16
2023-12-04T04:53:22.809Z,67.67
2023-12-04T04:55:49.781Z,68.38
2023-12-04T04:58:17.898Z,67.87
2023-12-04T05:00:48.482Z,68.06
2023-12-04T05:03:15.103Z,68.03
2023-12-04T05:05:41.770Z,68.21
2023-12-04T05:08:08.282Z,68.22
2023-12-04T05:10:34.722Z,68.16
2023-12-04T05:13:01.198Z,68.71
2023-12-04T05:15:27.777Z,68.88
2023-12-04T05:17:54.694Z,68.93
2023-12-04T05:20:21.258Z,68.77
2023-12-04T05:22:47.934Z,69.34
2023-12-04T05:25:14.471Z,69.27
2023-12-04T05:27:41.019Z,68.62
2023-12-04T05:30:08.031Z,68.76
2023-12-04T05:32:34.642Z,68.46
2023-12-04T05:35:01.308Z,68.58
2023-12-04T05:37:27.729Z,69.09
2023-12-04T05:39:54.192Z,69.11
2023-12-04T05:42:20.648Z,69.46
2023-12-04T05:44:47.166Z,69.14
2023-12-04T05:47:13.620Z,69.10
2023-12-04T05:49:40.125Z,68.66
2023-12-04T05:52:07.020Z,69.24
2023-12-04T05:54:33.507Z,69.24
2023-12-04T05:56:59.911Z,68.82
2023-12-04T05:59:26.527Z,68.15
2023-12-04T06:01:52.993Z,69.14
2023-12-04T06:04:19.443Z,69.57
2023-12-04T06:06:45.895Z,69.35
2023-12-04T06:09:12.436Z,69.57
2023-12-04T06:11:38.869Z,69.41
2023-12-04T06:14:05.338Z,69.09
2023-12-04T06:16:31.922Z,69.58
2023-12-04T06:18:58.445Z,69.12
2023-12-04T06:21:24.943Z,69.11
2023-12-04T06:23:51.708Z,68.96
2023-12-04T06:26:18.529Z,68.65
2023-12-04T06:28:46.141Z,69.28
2023-12-04T06:31:13.401Z,69.55
2023-12-04T06:33:40.132Z,69.53
2023-12-04T06:36:08.211Z,69.14
2023-12-04T06:38:41.187Z,69.52
2023-12-04T06:41:09.119Z,69.09
2023-12-04T06:43:35.983Z,69.70
2023-12-04T06:46:03.314Z,68.98
2023-12-04T06:48:33.417Z,68.57
2023-12-04T06:51:00.442Z,68.58
2023-12-04T06:53:26.980Z,69.26
2023-12-04T06:55:53.438Z,68.95
2023-12-04T06:58:20.253Z,68.93
2023-12-04T07:00:46.841Z,69.26
2023-12-04T07:03:13.406Z,69.06
2023-12-04T07:05:39.981Z,68.79
2023-12-04T07:08:06.785Z,69.43
2023-12-04T07:10:35.391Z,69.18
2023-12-04T07:13:02.230Z,68.99
2023-12-04T07:15:28.829Z,69.52
2023-12-04T07:17:56.783Z,69.76
2023-12-04T07:20:25.038Z,69.88
2023-12-04T07:22:52.380Z,70.04
2023-12-04T07:25:19.033Z,69.55
2023-12-04T07:27:45.666Z,69.57
2023-12-04T07:30:12.416Z,69.69
2023-12-04T07:32:38.969Z,69.88
2023-12-04T07:35:06.357Z,69.81
2023-12-04T07:37:33.267Z,69.72
2023-12-04T07:39:59.990Z,69.28
2023-12-04T07:42:26.779Z,69.28
2023-12-04T07:44:53.248Z,69.62
2023-12-04T07:47:19.837Z,69.82
2023-12-04T07:49:46.564Z,67.69
2023-12-04T07:52:13.276Z,68.78
2023-12-04T07:54:40.247Z,69.55
2023-12-04T07:57:06.820Z,68.58
2023-12-04T07:59:33.263Z,69.06
2023-12-04T08:01:59.896Z,67.09
2023-12-04T08:04:26.452Z,67.48
2023-12-04T08:06:53.190Z,66.88
2023-12-04T08:09:19.665Z,67.56
2023-12-04T08:11:46.553Z,67.13
2023-12-04T08:14:13.163Z,67.08
2023-12-04T08:16:39.875Z,66.80
2023-12-04T08:19:06.392Z,67.68
2023-12-04T08:21:33.294Z,67.84
2023-12-04T08:23:59.807Z,67.83
2023-12-04T08:26:26.627Z,67.49
2023-12-04T08:28:53.601Z,68.50
2023-12-04T08:31:20.361Z,67.62
2023-12-04T08:33:47.124Z,67.90
2023-12-04T08:36:13.785Z,68.10
2023-12-04T08:38:40.336Z,66.94
2023-12-04T08:41:07.437Z,66.74
2023-12-04T08:43:33.959Z,67.77
2023-12-04T08:46:01.766Z,68.11
2023-12-04T08:48:28.422Z,67.24
2023-12-04T08:50:55.732Z,67.20
2023-12-04T08:53:22.453Z,67.29
2023-12-04T08:55:48.968Z,67.77
2023-12-04T08:58:15.821Z,68.06
2023-12-04T09:00:44.656Z,67.20
2023-12-04T09:03:18.093Z,67.74
2023-12-04T09:05:51.637Z,67.90
2023-12-04T09:08:31.693Z,67.50
2023-12-04T09:11:18.227Z,66.76
2023-12-04T09:13:49.507Z,68.55
2023-12-04T09:16:16.057Z,67.79
2023-12-04T09:18:42.685Z,68.08
2023-12-04T09:21:09.584Z,68.64
2023-12-04T09:23:36.737Z,68.23
2023-12-04T09:26:03.639Z,67.17
2023-12-04T09:28:30.363Z,67.50
2023-12-04T09:30:57.749Z,65.06
2023-12-04T09:33:24.360Z,66.32
2023-12-04T09:35:50.963Z,66.15
2023-12-04T09:38:17.731Z,64.71
2023-12-04T09:40:44.329Z,65.65
2023-12-04T09:43:11.825Z,64.31
2023-12-04T09:45:39.997Z,63.66
2023-12-04T09:48:07.799Z,64.42
2023-12-04T09:50:34.789Z,65.06
2023-12-04T09:53:03.563Z,64.29
2023-12-04T09:55:30.062Z,63.73
2023-12-04T09:57:57.913Z,64.11
2023-12-04T10:00:25.404Z,64.74
2023-12-04T10:02:53.373Z,64.78
2023-12-04T10:05:19.971Z,64.04
2023-12-04T10:07:47.001Z,64.73
2023-12-04T10:10:15.503Z,64.19
2023-12-04T10:12:44.559Z,63.88
2023-12-04T10:15:13.337Z,65.32
2023-12-04T10:17:41.757Z,65.18
2023-12-04T10:20:13.438Z,65.09
2023-12-04T10:22:57.814Z,65.17
2023-12-04T10:25:27.209Z,64.01
2023-12-04T10:27:55.308Z,63.60
2023-12-04T10:30:29.915Z,64.74
2023-12-04T10:33:04.202Z,63.34
2023-12-04T10:35:33.811Z,64.47
2023-12-04T10:38:00.896Z,63.42
2023-12-04T10:40:28.786Z,62.81
2023-12-04T10:43:12.160Z,62.59
2023-12-04T10:45:43.508Z,61.95
2023-12-04T10:48:12.785Z,61.86
2023-12-04T10:50:41.095Z,61.65
2023-12-04T10:53:13.441Z,60.94
2023-12-04T10:55:41.471Z,61.90
2023-12-04T10:58:16.674Z,60.87
2023-12-04T11:00:47.659Z,61.11
2023-12-04T11:03:39.232Z,60.87
2023-12-04T11:06:10.417Z,60.16
2023-12-04T11:08:38.105Z,60.67
2023-12-04T11:11:13.006Z,62.19
2023-12-04T11:13:42.904Z,62.04
2023-12-04T11:16:19.564Z,61.81
2023-12-04T11:19:13.335Z,62.11
2023-12-04T11:21:40.809Z,62.90
2023-12-04T11:24:09.213Z,61.64
2023-12-04T11:26:37.139Z,61.35
2023-12-04T11:29:04.942Z,61.09
2023-12-04T11:31:32.220Z,61.31
2023-12-04T11:34:05.794Z,59.83
2023-12-04T11:36:32.399Z,59.45
2023-12-04T11:38:58.985Z,60.24
2023-12-04T11:41:27.764Z,60.41
2023-12-04T11:43:57.485Z,61.30
2023-12-04T11:46:29.125Z,61.84
2023-12-04T11:49:12.471Z,62.72
2023-12-04T11:51:48.286Z,62.71
2023-12-04T11:54:16.509Z,63.33
2023-12-04T11:57:20.332Z,62.70
2023-12-04T11:59:46.861Z,62.46
2023-12-04T12:02:13.391Z,61.90
2023-12-04T12:04:40.296Z,60.19
2023-12-04T12:07:08.925Z,60.37
2023-12-04T12:09:36.240Z,58.90
2023-12-04T12:12:03.887Z,59.37
2023-12-04T12:14:31.181Z,58.27
2023-12-04T12:17:00.833Z,58.90
2023-12-04T12:19:27.778Z,58.27
2023-12-04T12:21:54.386Z,58.88
2023-12-04T12:24:20.925Z,58.40
2023-12-04T12:26:48.491Z,59.79
2023-12-04T12:29:15.024Z,59.11
2023-12-04T12:31:41.456Z,59.54
2023-12-04T12:34:08.115Z,60.02
2023-12-04T12:36:35.368Z,60.18
2023-12-04T12:39:04.867Z,59.63
2023-12-04T12:41:32.336Z,60.26
2023-12-04T12:43:58.917Z,61.76
2023-12-04T12:46:25.502Z,61.80
2023-12-04T12:48:52.641Z,63.24
2023-12-04T12:51:19.754Z,62.92
2023-12-04T12:53:50.828Z,62.64
2023-12-04T12:56:19.214Z,60.45
2023-12-04T12:58:45.965Z,62.61
2023-12-04T13:01:13.382Z,62.31
2023-12-04T13:03:40.200Z,61.88
2023-12-04T13:06:07.219Z,63.56
2023-12-04T13:08:33.719Z,63.61
2023-12-04T13:11:01.104Z,63.61
2023-12-04T13:13:28.296Z,64.63
2023-12-04T13:15:55.638Z,64.97
2023-12-04T13:18:22.668Z,64.40
2023-12-04T13:20:49.292Z,64.82
2023-12-04T13:23:15.807Z,64.04
2023-12-04T13:25:42.434Z,64.57
2023-12-04T13:28:12.256Z,64.06
2023-12-04T13:30:46.547Z,63.82
2023-12-04T13:33:13.136Z,63.41
2023-12-04T13:35:39.891Z,63.64
2023-12-04T13:38:15.275Z,62.68
2023-12-04T13:40:42.070Z,61.69
2023-12-04T13:43:27.216Z,62.17
2023-12-04T13:45:54.114Z,62.43
2023-12-04T13:48:22.530Z,64.07
2023-12-04T13:50:51.257Z,65.19
2023-12-04T13:53:21.590Z,64.95
2023-12-04T13:55:50.661Z,64.10
2023-12-04T13:58:36.306Z,63.89
2023-12-04T14:01:12.931Z,63.16
2023-12-04T14:03:39.983Z,64.00
2023-12-04T14:06:07.241Z,63.45
2023-12-04T14:08:34.072Z,62.94
2023-12-04T14:11:00.757Z,63.80
2023-12-04T14:13:28.176Z,65.55
2023-12-04T14:15:55.789Z,64.32
2023-12-04T14:18:24.641Z,64.97
2023-12-04T14:20:52.415Z,64.45
2023-12-04T14:23:20.139Z,64.34
2023-12-04T14:25:48.570Z,64.81
2023-12-04T14:28:17.481Z,65.73
2023-12-04T14:30:48.143Z,64.52
2023-12-04T14:33:15.332Z,66.01
2023-12-04T14:35:44.760Z,66.64
2023-12-04T14:38:11.456Z,66.71
2023-12-04T14:40:38.268Z,66.29
2023-12-04T14:43:06.373Z,65.45
2023-12-04T14:45:32.956Z,66.50
2023-12-04T14:47:59.616Z,66.42
2023-12-04T14:50:26.131Z,66.40
2023-12-04T14:52:55.478Z,66.94
2023-12-04T14:55:25.142Z,67.24
2023-12-04T14:58:13.289Z,67.39
2023-12-04T15:00:58.298Z,67.11
2023-12-04T15:03:24.761Z,66.79
2023-12-04T15:05:54.127Z,67.09
2023-12-04T15:08:47.010Z,67.41
2023-12-04T15:11:13.557Z,67.57
2023-12-04T15:13:51.452Z,68.37
2023-12-04T15:16:27.208Z,67.68
2023-12-04T15:18:54.189Z,68.31
2023-12-04T15:21:23.135Z,68.23
2023-12-04T15:23:50.172Z,67.97
2023-12-04T15:26:18.336Z,68.29
2023-12-04T15:28:46.038Z,67.83
2023-12-04T15:31:13.306Z,67.48
2023-12-04T15:33:39.859Z,68.34
2023-12-04T15:36:08.440Z,68.34
2023-12-04T15:38:35.219Z,67.73
2023-12-04T15:41:02.441Z,68.20
2023-12-04T15:43:28.984Z,68.01
2023-12-04T15:45:55.730Z,67.58
2023-12-04T15:48:22.392Z,68.46
2023-12-04T15:50:48.911Z,68.23
2023-12-04T15:53:15.454Z,68.55
2023-12-04T15:55:41.897Z,68.06
2023-12-04T15:58:08.420Z,67.67
2023-12-04T16:00:35.553Z,68.55
2023-12-04T16:03:02.069Z,68.14
2023-12-04T16:05:28.706Z,68.09
2023-12-04T16:07:55.347Z,68.58
2023-12-04T16:10:22.225Z,68.66
2023-12-04T16:12:49.102Z,68.64
2023-12-04T16:15:18.072Z,68.29
2023-12-04T16:17:44.550Z,68.41
2023-12-04T16:20:12.468Z,69.12
2023-12-04T16:22:43.773Z,68.50
2023-12-04T16:25:11.104Z,68.41
2023-12-04T16:27:39.506Z,68.75
2023-12-04T16:30:07.677Z,68.71
2023-12-04T16:32:34.606Z,68.07
2023-12-04T16:35:02.441Z,68.62
2023-12-04T16:37:29.900Z,69.12
2023-12-04T16:39:56.465Z,69.20
2023-12-04T16:42:23.161Z,69.54
2023-12-04T16:44:49.742Z,69.16
2023-12-04T16:47:16.255Z,68.45
2023-12-04T16:49:43.066Z,68.15
2023-12-04T16:52:09.666Z,68.62
2023-12-04T16:54:36.215Z,68.93
2023-12-04T16:57:02.809Z,68.86
2023-12-04T16:59:29.285Z,68.33
2023-12-04T17:01:55.914Z,68.39
2023-12-04T17:04:23.079Z,68.88
2023-12-04T17:06:49.991Z,69.13
2023-12-04T17:09:16.758Z,69.23
2023-12-04T17:11:43.928Z,69.29
2023-12-04T17:14:11.427Z,69.56
2023-12-04T17:16:38.005Z,69.02
2023-12-04T17:19:04.719Z,69.68
2023-12-04T17:21:31.215Z,69.10
2023-12-04T17:23:57.886Z,68.11
2023-12-04T17:26:24.844Z,68.85
2023-12-04T17:28:51.843Z,68.93
2023-12-04T17:31:18.424Z,69.23
2023-12-04T17:33:45.561Z,69.27
2023-12-04T17:36:12.465Z,69.02
2023-12-04T17:38:39.189Z,68.94
2023-12-04T17:41:05.784Z,69.47
2023-12-04T17:43:33.851Z,69.04
2023-12-04T17:46:00.455Z,68.94
2023-12-04T17:48:27.337Z,69.74
2023-12-04T17:50:54.053Z,69.24
2023-12-04T17:53:21.053Z,68.83
2023-12-04T17:55:47.667Z,69.78
2023-12-04T17:58:17.250Z,70.41
2023-12-04T18:00:44.446Z,70.23
2023-12-04T18:03:11.469Z,71.12
2023-12-04T18:05:38.522Z,70.55
2023-12-04T18:08:05.352Z,71.01
2023-12-04T18:10:32.346Z,70.96
2023-12-04T18:12:58.854Z,70.40
2023-12-04T18:15:25.367Z,71.63
2023-12-04T18:17:52.039Z,72.05
2023-12-04T18:20:18.642Z,71.60
2023-12-04T18:22:45.853Z,71.68
2023-12-04T18:25:13.604Z,71.31
2023-12-04T18:27:40.901Z,71.57
2023-12-04T18:30:09.284Z,71.79
2023-12-04T18:32:36.233Z,71.18
2023-12-04T18:35:03.376Z,70.77
2023-12-04T18:37:36.303Z,71.41
2023-12-04T18:40:08.007Z,72.07
2023-12-04T18:42:34.934Z,71.54
2023-12-04T18:45:01.701Z,72.04
2023-12-04T18:47:29.461Z,71.61
2023-12-04T18:49:58.251Z,71.66
2023-12-04T18:52:25.101Z,71.74
2023-12-04T18:54:51.696Z,72.56
2023-12-04T18:57:18.318Z,71.51
2023-12-04T18:59:44.769Z,71.24
2023-12-04T19:02:11.336Z,71.64
2023-12-04T19:04:38.593Z,71.95
2023-12-04T19:07:05.643Z,71.67
2023-12-04T19:09:32.347Z,71.50
2023-12-04T19:11:58.950Z,71.22
2023-12-04T19:14:25.426Z,71.26
2023-12-04T19:16:51.917Z,71.20
2023-12-04T19:19:18.510Z,71.33
2023-12-04T19:21:45.042Z,71.94
2023-12-04T19:24:11.629Z,71.65
2023-12-04T19:26:38.167Z,71.35
2023-12-04T19:29:04.588Z,71.55
2023-12-04T19:31:31.016Z,72.18
2023-12-04T19:33:57.677Z,71.46
2023-12-04T19:36:24.197Z,71.57
2023-12-04T19:38:50.808Z,71.81
2023-12-04T19:41:17.817Z,71.54
2023-12-04T19:43:44.718Z,71.67
2023-12-04T19:46:11.202Z,71.56
2023-12-04T19:48:37.830Z,72.24
2023-12-04T19:51:05.645Z,72.50
2023-12-04T19:53:32.055Z,72.12
2023-12-04T19:55:58.504Z,71.78
2023-12-04T19:58:24.986Z,71.64
2023-12-04T20:00:51.464Z,71.92
2023-12-04T20:03:18.137Z,72.12
2023-12-04T20:05:44.998Z,72.09
2023-12-04T20:08:11.616Z,71.92
2023-12-04T20:10:39.359Z,71.96
2023-12-04T20:13:08.134Z,71.90
2023-12-04T20:15:34.880Z,72.20
2023-12-04T20:18:02.280Z,71.80
2023-12-04T20:20:29.392Z,72.37
2023-12-04T20:22:56.061Z,72.43
2023-12-04T20:25:26.871Z,72.26
2023-12-04T20:27:53.665Z,71.95
2023-12-04T20:30:20.097Z,72.23
2023-12-04T20:32:46.666Z,72.70
2023-12-04T20:35:13.146Z,73.07
2023-12-04T20:37:42.067Z,72.42
2023-12-04T20:40:10.431Z,72.80
2023-12-04T20:42:37.689Z,72.41
2023-12-04T20:45:05.707Z,72.36
2023-12-04T20:47:33.506Z,71.98
2023-12-04T20:50:00.165Z,72.36
2023-12-04T20:52:27.016Z,72.72
2023-12-04T20:54:53.555Z,72.67
2023-12-04T20:57:20.306Z,73.00
2023-12-04T20:59:46.754Z,72.93
2023-12-04T21:02:13.259Z,73.43
2023-12-04T21:04:40.651Z,72.78
2023-12-04T21:07:07.875Z,74.01
2023-12-04T21:09:36.531Z,72.68
2023-12-04T21:12:03.450Z,73.12
2023-12-04T21:14:29.994Z,72.98
2023-12-04T21:17:01.299Z,73.40
2023-12-04T21:19:29.396Z,73.55
2023-12-04T21:21:56.127Z,73.44
2023-12-04T21:24:22.632Z,72.58
2023-12-04T21:26:49.196Z,72.83
2023-12-04T21:29:15.698Z,73.21
2023-12-04T21:31:42.137Z,73.05
2023-12-04T21:34:09.415Z,73.17
2023-12-04T21:36:35.969Z,72.71
2023-12-04T21:39:02.695Z,73.29
2023-12-04T21:41:29.161Z,73.05
2023-12-04T21:43:56.189Z,73.01
2023-12-04T21:46:22.749Z,71.77
2023-12-04T21:48:49.378Z,72.28
2023-12-04T21:51:16.117Z,72.19
2023-12-04T21:53:42.581Z,72.39
2023-12-04T21:56:09.290Z,72.63
2023-12-04T21:58:35.766Z,72.05
2023-12-04T22:01:02.248Z,72.53
2023-12-04T22:03:28.931Z,72.70
2023-12-04T22:05:55.680Z,72.57
2023-12-04T22:08:23.114Z,72.56
2023-12-04T22:10:49.906Z,72.04
2023-12-04T22:13:16.393Z,72.57
2023-12-04T22:15:42.898Z,72.06
2023-12-04T22:18:09.673Z,72.31
2023-12-04T22:20:36.221Z,72.43
2023-12-04T22:23:02.925Z,72.61
2023-12-04T22:25:29.440Z,72.64
2023-12-04T22:27:56.165Z,72.66
2023-12-04T22:30:23.386Z,72.65
2023-12-04T22:32:50.289Z,72.20
2023-12-04T22:35:16.768Z,72.86
2023-12-04T22:37:43.770Z,72.39
2023-12-04T22:40:10.818Z,72.62
2023-12-04T22:42:37.630Z,72.56
2023-12-04T22:45:05.364Z,73.50
2023-12-04T22:47:31.868Z,73.40
2023-12-04T22:49:58.296Z,73.79
2023-12-04T22:52:24.833Z,73.64
2023-12-04T22:54:51.375Z,73.69
2023-12-04T22:57:17.839Z,73.67
2023-12-04T22:59:44.381Z,73.11
2023-12-04T23:02:10.873Z,72.99
2023-12-04T23:04:39.153Z,73.58
2023-12-04T23:07:06.892Z,73.33
2023-12-04T23:09:34.216Z,73.76
2023-12-04T23:12:00.765Z,72.55
2023-12-04T23:14:28.980Z,72.51
2023-12-04T23:16:55.536Z,72.83
2023-12-04T23:19:22.190Z,73.04
2023-12-04T23:21:49.022Z,72.78
2023-12-04T23:24:15.727Z,72.80
2023-12-04T23:26:42.212Z,73.32
2023-12-04T23:29:08.808Z,72.55
2023-12-04T23:31:35.326Z,72.77
2023-12-04T23:34:02.465Z,72.66
2023-12-04T23:36:29.124Z,73.15
2023-12-04T23:38:55.668Z,73.34
2023-12-04T23:41:22.317Z,73.04
2023-12-04T23:43:48.971Z,73.20
2023-12-04T23:46:15.508Z,73.16
2023-12-04T23:48:42.489Z,73.16
2023-12-04T23:51:09.216Z,72.89
2023-12-04T23:53:35.780Z,72.52
2023-12-04T23:56:02.463Z,72.71
2023-12-04T23:58:28.888Z,73.15
